Time;durP1;ratioP1;P1;durP2;ratioP2;P2;SDS_P1;SDS_P2;PMS_P1;PMS_P2;Temp;Humidity;BMP_temperature;BMP_pressure;BME280_temperature;BME280_humidity;BME280_pressure;Samples;Min_cycle;Max_cycle;Signal;HPM_P1;HPM_P2
2022/08/02 00:00:07;;;;;;;;;;;;;;;;;;5058551;28;1700;-71
2022/08/02 00:02:32;;;;;;;;;;;;;;;;;;5052643;28;1529;-71
2022/08/02 00:04:57;;;;;;;;;;;;;;;;;;5052894;28;1198;-70
2022/08/02 00:07:23;;;;;;;;;;;;;;;;;;5051685;28;1833;-70
2022/08/02 00:09:48;;;;;;;;;;;;;;;;;;5052768;28;1894;-70
2022/08/02 00:12:13;;;;;;;;;;;;;;;;;;5039054;28;1533;-70
2022/08/02 00:14:38;;;;;;;;;;;;;;;;;;5045380;28;1703;-70
2022/08/02 00:17:04;;;;;;;;;;;;;;;;;;5055387;28;1523;-70
2022/08/02 00:19:29;;;;;;;;;;;;;;;;;;5052821;28;1736;-70
2022/08/02 00:21:54;;;;;;;;;;;;;;;;;;5049400;28;1519;-70
2022/08/02 00:24:19;;;;;;;;;;;;;;;;;;5058493;28;1288;-70
2022/08/02 00:26:45;;;;;;;;;;;;;;;;;;5055515;28;1499;-70
2022/08/02 00:29:10;;;;;;;;;;;;;;;;;;5055866;28;1953;-70
2022/08/02 00:31:35;;;;;;;;;;;;;;;;;;5054612;28;1476;-69
2022/08/02 00:34:00;;;;;;;;;;;;;;;;;;5057021;28;1539;-70
2022/08/02 00:36:25;;;;;;;;;;;;;;;;;;5054386;28;1740;-70
2022/08/02 00:38:50;;;;;;;;;;;;;;;;;;5055468;28;1508;-70
2022/08/02 00:41:18;;;;;;;;;;;;;;;;;;5053469;28;1900;-70
2022/08/02 00:43:44;;;;;;;;;;;;;;;;;;5046928;28;1516;-70
2022/08/02 00:46:09;;;;;;;;;;;;;;;;;;5042409;28;1594;-70
2022/08/02 00:48:35;;;;;;;;;;;;;;;;;;5049039;28;1947;-70
2022/08/02 00:51:00;;;;;;;;;;;;;;;;;;5055773;28;1456;-70
2022/08/02 00:53:25;;;;;;;;;;;;;;;;;;5046254;28;1527;-70
2022/08/02 00:55:51;;;;;;;;;;;;;;;;;;5047785;28;1519;-70
2022/08/02 00:58:16;;;;;;;;;;;;;;;;;;5055599;28;1204;-70
2022/08/02 01:00:41;;;;;;;;;;;;;;;;;;5043313;28;1817;-70
2022/08/02 01:03:06;;;;;;;;;;;;;;;;;;5057832;28;1563;-70
2022/08/02 01:05:31;;;;;;;;;;;;;;;;;;5060964;28;1150;-70
2022/08/02 01:07:57;;;;;;;;;;;;;;;;;;5053383;28;1963;-71
2022/08/02 01:10:22;;;;;;;;;;;;;;;;;;5048553;28;1861;-71
2022/08/02 01:12:47;;;;;;;;;;;;;;;;;;5056247;28;1577;-71
2022/08/02 01:15:13;;;;;;;;;;;;;;;;;;5053076;28;1645;-71
2022/08/02 01:17:41;;;;;;;;;;;;;;;;;;5053710;28;1510;-71
2022/08/02 01:20:16;;;;;;;;;;;;;;;;;;5041774;28;1672;-71
2022/08/02 01:22:41;;;;;;;;;;;;;;;;;;5053852;28;1546;-70
2022/08/02 01:25:32;;;;;;;;;;;;;;;;;;5053245;28;1504;-70
2022/08/02 01:28:16;;;;;;;;;;;;;;;;;;5052679;28;1890;-70
2022/08/02 01:30:42;;;;;;;;;;;;;;;;;;5051476;28;1915;-70
2022/08/02 01:33:10;;;;;;;;;;;;;;;;;;5057331;28;1194;-71
2022/08/02 01:35:38;;;;;;;;;;;;;;;;;;5055332;28;1640;-71
2022/08/02 01:38:08;;;;;;;;;;;;;;;;;;5057763;28;1315;-71
2022/08/02 01:40:36;;;;;;;;;;;;;;;;;;5058349;28;1191;-71
2022/08/02 01:43:02;;;;;;;;;;;;;;;;;;5058959;28;1436;-71
2022/08/02 01:45:29;;;;;;;;;;;;;;;;;;5058286;28;1469;-71
2022/08/02 01:47:55;;;;;;;;;;;;;;;;;;5043805;28;1967;-71
2022/08/02 01:50:24;;;;;;;;;;;;;;;;;;5044722;28;1609;-70
2022/08/02 01:52:50;;;;;;;;;;;;;;;;;;5051632;28;1579;-69
2022/08/02 01:55:19;;;;;;;;;;;;;;;;;;5045951;28;1202;-70
2022/08/02 01:57:49;;;;;;;;;;;;;;;;;;5048320;28;1571;-70
2022/08/02 02:00:15;;;;;;;;;;;;;;;;;;5058504;28;1550;-69
2022/08/02 02:02:42;;;;;;;;;;;;;;;;;;5052847;28;1545;-70
2022/08/02 02:05:10;;;;;;;;;;;;;;;;;;5053267;28;1475;-69
2022/08/02 02:07:35;;;;;;;;;;;;;;;;;;5051637;28;1961;-70
2022/08/02 02:10:01;;;;;;;;;;;;;;;;;;5058546;28;1566;-70
2022/08/02 02:12:27;;;;;;;;;;;;;;;;;;5049869;28;1484;-70
2022/08/02 02:14:53;;;;;;;;;;;;;;;;;;5053422;28;1490;-70
2022/08/02 02:17:19;;;;;;;;;;;;;;;;;;5031040;28;1905;-69
2022/08/02 02:19:45;;;;;;;;;;;;;;;;;;5049121;28;1509;-69
2022/08/02 02:22:10;;;;;;;;;;;;;;;;;;5038343;28;1877;-69
2022/08/02 02:24:35;;;;;;;;;;;;;;;;;;5053899;28;1393;-69
2022/08/02 02:27:02;;;;;;;;;;;;;;;;;;5051847;28;1563;-69
2022/08/02 02:29:28;;;;;;;;;;;;;;;;;;5056761;28;1954;-69
2022/08/02 02:31:54;;;;;;;;;;;;;;;;;;5052327;28;1550;-69
2022/08/02 02:34:27;;;;;;;;;;;;;;;;;;5053781;28;1476;-70
2022/08/02 02:36:52;;;;;;;;;;;;;;;;;;5047157;28;1294;-70
2022/08/02 02:39:19;;;;;;;;;;;;;;;;;;5050307;28;1888;-70
2022/08/02 02:41:46;;;;;;;;;;;;;;;;;;5059370;28;1480;-70
2022/08/02 02:44:17;;;;;;;;;;;;;;;;;;5058940;28;1591;-70
2022/08/02 02:46:43;;;;;;;;;;;;;;;;;;5056590;28;1618;-69
2022/08/02 02:49:09;;;;;;;;;;;;;;;;;;5061363;28;1961;-70
2022/08/02 02:51:35;;;;;;;;;;;;;;;;;;5055814;28;1658;-70
2022/08/02 02:54:01;;;;;;;;;;;;;;;;;;5055222;28;1514;-70
2022/08/02 02:56:26;;;;;;;;;;;;;;;;;;5061628;28;1372;-70
2022/08/02 02:58:53;;;;;;;;;;;;;;;;;;5054417;28;1559;-70
2022/08/02 03:01:28;;;;;;;;;;;;;;;;;;5054347;28;1869;-70
2022/08/02 03:04:00;;;;;;;;;;;;;;;;;;5059248;28;1765;-70
2022/08/02 03:06:26;;;;;;;;;;;;;;;;;;5055468;28;1594;-70
2022/08/02 03:08:51;;;;;;;;;;;;;;;;;;5054149;28;1890;-70
2022/08/02 03:11:17;;;;;;;;;;;;;;;;;;5061119;28;1665;-70
2022/08/02 03:13:42;;;;;;;;;;;;;;;;;;5052289;28;1531;-70
2022/08/02 03:16:09;;;;;;;;;;;;;;;;;;5048170;28;1519;-70
2022/08/02 03:18:35;;;;;;;;;;;;;;;;;;5057996;28;1523;-71
2022/08/02 03:21:01;;;;;;;;;;;;;;;;;;5056704;28;1440;-71
2022/08/02 03:23:26;;;;;;;;;;;;;;;;;;5055900;28;1459;-71
2022/08/02 03:25:51;;;;;;;;;;;;;;;;;;5055233;28;1511;-70
2022/08/02 03:28:17;;;;;;;;;;;;;;;;;;5052175;28;1982;-70
2022/08/02 03:30:42;;;;;;;;;;;;;;;;;;5054935;28;1612;-70
2022/08/02 03:33:07;;;;;;;;;;;;;;;;;;5051783;28;1557;-70
2022/08/02 03:35:32;;;;;;;;;;;;;;;;;;5050055;28;1349;-70
2022/08/02 03:37:58;;;;;;;;;;;;;;;;;;5055385;28;1793;-69
2022/08/02 03:40:25;;;;;;;;;;;;;;;;;;5055402;28;1257;-70
2022/08/02 03:42:51;;;;;;;;;;;;;;;;;;5053537;28;1535;-70
2022/08/02 03:45:16;;;;;;;;;;;;;;;;;;5038990;28;1889;-70
2022/08/02 03:47:42;;;;;;;;;;;;;;;;;;5052145;28;1969;-70
2022/08/02 03:50:10;;;;;;;;;;;;;;;;;;5054181;28;1511;-69
2022/08/02 03:52:36;;;;;;;;;;;;;;;;;;5054825;28;1495;-69
2022/08/02 03:55:01;;;;;;;;;;;;;;;;;;5044671;28;1585;-69
2022/08/02 03:57:26;;;;;;;;;;;;;;;;;;5056414;28;1650;-69
2022/08/02 03:59:51;;;;;;;;;;;;;;;;;;5054927;28;1555;-69
2022/08/02 04:02:16;;;;;;;;;;;;;;;;;;5053634;28;1556;-69
2022/08/02 04:04:42;;;;;;;;;;;;;;;;;;5050595;28;1574;-70
2022/08/02 04:07:07;;;;;;;;;;;;;;;;;;5048337;28;1539;-70
2022/08/02 04:09:32;;;;;;;;;;;;;;;;;;5044965;28;1923;-69
2022/08/02 04:11:58;;;;;;;;;;;;;;;;;;5056048;28;1178;-69
2022/08/02 04:14:23;;;;;;;;;;;;;;;;;;5044237;28;1451;-69
2022/08/02 04:16:53;;;;;;;;;;;;;;;;;;5044211;28;1975;-69
2022/08/02 04:19:38;;;;;;;;;;;;;;;;;;5031776;28;1508;-69
2022/08/02 04:22:05;;;;;;;;;;;;;;;;;;5036513;28;1496;-69
2022/08/02 04:24:43;;;;;;;;;;;;;;;;;;5050863;28;1892;-68
2022/08/02 04:27:09;;;;;;;;;;;;;;;;;;5046668;28;1484;-69
2022/08/02 04:29:35;;;;;;;;;;;;;;;;;;5058617;28;1972;-70
2022/08/02 04:32:01;;;;;;;;;;;;;;;;;;5049579;28;1566;-70
2022/08/02 04:34:26;;;;;;;;;;;;;;;;;;5061418;28;1153;-69
2022/08/02 04:36:52;;;;;;;;;;;;;;;;;;5034078;28;1673;-70
2022/08/02 04:39:18;;;;;;;;;;;;;;;;;;5053252;28;1702;-70
2022/08/02 04:41:45;;;;;;;;;;;;;;;;;;5057956;28;1565;-70
2022/08/02 04:44:11;;;;;;;;;;;;;;;;;;5061001;28;1201;-69
2022/08/02 04:46:36;;;;;;;;;;;;;;;;;;5055143;28;1927;-69
2022/08/02 04:49:01;;;;;;;;;;;;;;;;;;5053379;28;1957;-70
2022/08/02 04:51:26;;;;;;;;;;;;;;;;;;5050281;28;1535;-70
2022/08/02 04:53:52;;;;;;;;;;;;;;;;;;5051065;28;1188;-70
2022/08/02 04:56:17;;;;;;;;;;;;;;;;;;5048430;28;1586;-70
2022/08/02 04:58:42;;;;;;;;;;;;;;;;;;5054151;28;1659;-70
2022/08/02 05:01:10;;;;;;;;;;;;;;;;;;5042824;28;1554;-70
2022/08/02 05:03:35;;;;;;;;;;;;;;;;;;5051330;28;1731;-71
2022/08/02 05:06:06;;;;;;;;;;;;;;;;;;5041485;28;1200;-72
2022/08/02 05:08:31;;;;;;;;;;;;;;;;;;5057628;28;1906;-70
2022/08/02 05:10:56;;;;;;;;;;;;;;;;;;5058232;28;1229;-70
2022/08/02 05:13:21;;;;;;;;;;;;;;;;;;5059411;28;1919;-70
2022/08/02 05:15:48;;;;;;;;;;;;;;;;;;5053359;28;1590;-70
2022/08/02 05:18:13;;;;;;;;;;;;;;;;;;5057109;28;1729;-69
2022/08/02 05:20:38;;;;;;;;;;;;;;;;;;5059390;28;1551;-69
2022/08/02 05:23:04;;;;;;;;;;;;;;;;;;5051978;28;1833;-70
2022/08/02 05:25:29;;;;;;;;;;;;;;;;;;5059605;28;1462;-70
2022/08/02 05:27:54;;;;;;;;;;;;;;;;;;5059280;28;1908;-70
2022/08/02 05:30:19;;;;;;;;;;;;;;;;;;5059715;28;1460;-70
2022/08/02 05:32:45;;;;;;;;;;;;;;;;;;5061562;28;744;-70
2022/08/02 05:35:11;;;;;;;;;;;;;;;;;;5053039;28;1440;-70
2022/08/02 05:37:36;;;;;;;;;;;;;;;;;;5040362;28;1469;-71
2022/08/02 05:40:01;;;;;;;;;;;;;;;;;;5051548;28;1468;-71
2022/08/02 05:42:30;;;;;;;;;;;;;;;;;;5059220;28;1543;-70
2022/08/02 05:44:55;;;;;;;;;;;;;;;;;;5056456;28;1334;-72
2022/08/02 05:47:21;;;;;;;;;;;;;;;;;;5041639;28;1649;-72
2022/08/02 05:49:46;;;;;;;;;;;;;;;;;;5040825;28;1953;-72
2022/08/02 05:52:16;;;;;;;;;;;;;;;;;;5053166;28;1345;-72
2022/08/02 05:54:56;;;;;;;;;;;;;;;;;;5059146;28;1483;-73
2022/08/02 05:57:33;;;;;;;;;;;;;;;;;;5052487;28;1443;-73
2022/08/02 06:00:05;;;;;;;;;;;;;;;;;;5055129;28;1354;-72
2022/08/02 06:02:41;;;;;;;;;;;;;;;;;;5057926;28;1468;-73
2022/08/02 06:05:07;;;;;;;;;;;;;;;;;;5057139;28;1389;-72
2022/08/02 06:07:34;;;;;;;;;;;;;;;;;;5056080;28;1486;-73
2022/08/02 06:10:00;;;;;;;;;;;;;;;;;;5063331;28;1951;-71
2022/08/02 06:12:28;;;;;;;;;;;;;;;;;;5047332;28;1487;-72
2022/08/02 06:14:53;;;;;;;;;;;;;;;;;;5044541;28;1338;-72
2022/08/02 06:17:19;;;;;;;;;;;;;;;;;;5054778;28;1389;-71
2022/08/02 06:19:45;;;;;;;;;;;;;;;;;;5044227;28;1278;-72
2022/08/02 06:22:14;;;;;;;;;;;;;;;;;;5067605;28;1279;-72
2022/08/02 06:24:43;;;;;;;;;;;;;;;;;;5065322;28;1302;-71
2022/08/02 06:27:09;;;;;;;;;;;;;;;;;;5043730;28;1200;-71
2022/08/02 06:29:35;;;;;;;;;;;;;;;;;;5055871;28;1885;-71
2022/08/02 06:32:01;;;;;;;;;;;;;;;;;;5062320;28;1487;-72
2022/08/02 06:34:26;;;;;;;;;;;;;;;;;;5062616;28;1495;-74
2022/08/02 06:37:03;;;;;;;;;;;;;;;;;;5057009;28;1539;-72
2022/08/02 06:39:38;;;;;;;;;;;;;;;;;;5063868;28;1299;-73
2022/08/02 06:42:09;;;;;;;;;;;;;;;;;;5063685;28;1716;-73
2022/08/02 06:44:37;;;;;;;;;;;;;;;;;;5062393;28;1511;-74
2022/08/02 06:47:02;;;;;;;;;;;;;;;;;;5052873;28;1336;-73
2022/08/02 06:49:28;;;;;;;;;;;;;;;;;;5051480;28;1890;-73
2022/08/02 06:51:53;;;;;;;;;;;;;;;;;;5056720;28;1476;-73
2022/08/02 06:54:20;;;;;;;;;;;;;;;;;;5059894;28;1535;-77
2022/08/02 06:56:45;;;;;;;;;;;;;;;;;;5058560;28;1564;-75
2022/08/02 06:59:11;;;;;;;;;;;;;;;;;;5056895;28;1422;-74
2022/08/02 07:01:36;;;;;;;;;;;;;;;;;;5069664;28;1536;-73
2022/08/02 07:04:02;;;;;;;;;;;;;;;;;;5053768;28;1331;-73
2022/08/02 07:06:28;;;;;;;;;;;;;;;;;;5064931;28;1480;-73
2022/08/02 07:08:53;;;;;;;;;;;;;;;;;;5070708;28;1894;-73
2022/08/02 07:11:18;;;;;;;;;;;;;;;;;;5073035;28;1214;-73
2022/08/02 07:13:43;;;;;;;;;;;;;;;;;;5074691;28;1203;-74
2022/08/02 07:16:08;;;;;;;;;;;;;;;;;;5070170;28;1487;-74
2022/08/02 07:18:34;;;;;;;;;;;;;;;;;;5068713;28;1284;-74
2022/08/02 07:20:59;;;;;;;;;;;;;;;;;;5066788;28;1313;-74
2022/08/02 07:23:24;;;;;;;;;;;;;;;;;;5075282;28;1317;-75
2022/08/02 07:25:49;;;;;;;;;;;;;;;;;;5071190;28;1279;-74
2022/08/02 07:28:15;;;;;;;;;;;;;;;;;;5072998;28;1957;-74
2022/08/02 07:30:40;;;;;;;;;;;;;;;;;;5049345;28;1584;-73
2022/08/02 07:33:06;;;;;;;;;;;;;;;;;;5070766;28;1471;-74
2022/08/02 07:35:31;;;;;;;;;;;;;;;;;;5069780;28;1342;-74
2022/08/02 07:37:56;;;;;;;;;;;;;;;;;;5066918;28;1349;-75
2022/08/02 07:40:22;;;;;;;;;;;;;;;;;;5053116;28;1341;-73
2022/08/02 07:42:51;;;;;;;;;;;;;;;;;;5070118;28;1226;-74
2022/08/02 07:45:17;;;;;;;;;;;;;;;;;;5065130;28;1656;-74
2022/08/02 07:47:43;;;;;;;;;;;;;;;;;;5065874;28;1300;-74
2022/08/02 07:50:10;;;;;;;;;;;;;;;;;;5061387;28;1893;-74
2022/08/02 07:52:35;;;;;;;;;;;;;;;;;;5061801;28;1389;-74
2022/08/02 07:55:00;;;;;;;;;;;;;;;;;;5063680;28;1289;-73
2022/08/02 07:57:26;;;;;;;;;;;;;;;;;;5060722;28;1379;-74
2022/08/02 07:59:51;;;;;;;;;;;;;;;;;;5067784;28;1419;-75
2022/08/02 08:02:16;;;;;;;;;;;;;;;;;;5068069;28;1468;-73
2022/08/02 08:04:42;;;;;;;;;;;;;;;;;;5045140;28;1643;-72
2022/08/02 08:07:10;;;;;;;;;;;;;;;;;;5067421;28;1365;-72
2022/08/02 08:09:40;;;;;;;;;;;;;;;;;;5070521;28;1949;-72
2022/08/02 08:12:06;;;;;;;;;;;;;;;;;;5067627;28;1369;-73
2022/08/02 08:14:31;;;;;;;;;;;;;;;;;;5072521;28;1246;-73
2022/08/02 08:16:56;;;;;;;;;;;;;;;;;;5055008;28;1619;-73
2022/08/02 08:19:22;;;;;;;;;;;;;;;;;;5066836;28;1348;-73
2022/08/02 08:21:47;;;;;;;;;;;;;;;;;;5049816;28;1750;-73
2022/08/02 08:24:12;;;;;;;;;;;;;;;;;;5073949;28;1222;-73
2022/08/02 08:26:38;;;;;;;;;;;;;;;;;;5065161;28;1380;-73
2022/08/02 08:29:05;;;;;;;;;;;;;;;;;;5067932;28;1964;-73
2022/08/02 08:31:30;;;;;;;;;;;;;;;;;;5059762;28;1278;-73
2022/08/02 08:33:55;;;;;;;;;;;;;;;;;;5055295;28;1353;-73
2022/08/02 08:36:20;;;;;;;;;;;;;;;;;;5065693;28;1358;-73
2022/08/02 08:38:46;;;;;;;;;;;;;;;;;;5071267;28;1356;-73
2022/08/02 08:41:11;;;;;;;;;;;;;;;;;;5071907;28;1357;-73
2022/08/02 08:43:36;;;;;;;;;;;;;;;;;;5070031;28;1369;-73
2022/08/02 08:46:02;;;;;;;;;;;;;;;;;;5066147;28;1384;-73
2022/08/02 08:48:28;;;;;;;;;;;;;;;;;;5070290;28;1968;-73
2022/08/02 08:50:59;;;;;;;;;;;;;;;;;;5066178;28;1136;-73
2022/08/02 08:53:26;;;;;;;;;;;;;;;;;;5075808;28;1346;-73
2022/08/02 08:55:52;;;;;;;;;;;;;;;;;;5067824;28;1604;-73
2022/08/02 08:58:17;;;;;;;;;;;;;;;;;;5065121;28;1255;-73
2022/08/02 09:00:43;;;;;;;;;;;;;;;;;;5062283;28;1475;-73
2022/08/02 09:03:08;;;;;;;;;;;;;;;;;;5071550;28;1508;-74
2022/08/02 09:05:34;;;;;;;;;;;;;;;;;;5066495;28;1340;-73
2022/08/02 09:07:59;;;;;;;;;;;;;;;;;;5065594;28;1971;-73
2022/08/02 09:10:30;;;;;;;;;;;;;;;;;;5063575;28;1226;-72
2022/08/02 09:13:07;;;;;;;;;;;;;;;;;;5062791;28;1274;-73
2022/08/02 09:15:32;;;;;;;;;;;;;;;;;;5068017;28;1219;-73
2022/08/02 09:17:58;;;;;;;;;;;;;;;;;;5070577;28;1353;-73
2022/08/02 09:20:23;;;;;;;;;;;;;;;;;;5073719;28;1198;-73
2022/08/02 09:23:05;;;;;;;;;;;;;;;;;;5060108;28;1542;-73
2022/08/02 09:25:31;;;;;;;;;;;;;;;;;;5055210;28;1253;-72
2022/08/02 09:27:57;;;;;;;;;;;;;;;;;;5067631;28;1898;-72
2022/08/02 09:30:24;;;;;;;;;;;;;;;;;;5078397;28;1443;-71
2022/08/02 09:32:50;;;;;;;;;;;;;;;;;;5052913;28;1718;-72
2022/08/02 09:35:31;;;;;;;;;;;;;;;;;;5059374;28;1531;-73
2022/08/02 09:38:06;;;;;;;;;;;;;;;;;;5059720;28;1402;-73
2022/08/02 09:40:36;;;;;;;;;;;;;;;;;;5061302;28;1198;-72
2022/08/02 09:43:01;;;;;;;;;;;;;;;;;;5068535;28;1298;-74
2022/08/02 09:45:31;;;;;;;;;;;;;;;;;;5066648;28;1864;-72
2022/08/02 09:47:56;;;;;;;;;;;;;;;;;;5056940;28;1947;-72
2022/08/02 09:50:21;;;;;;;;;;;;;;;;;;5061317;28;1290;-71
2022/08/02 09:52:47;;;;;;;;;;;;;;;;;;5061206;28;953;-70
2022/08/02 09:55:12;;;;;;;;;;;;;;;;;;5052182;28;1889;-72
2022/08/02 09:57:37;;;;;;;;;;;;;;;;;;5049857;28;1320;-72
2022/08/02 10:00:05;;;;;;;;;;;;;;;;;;5042571;28;1456;-71
2022/08/02 10:02:31;;;;;;;;;;;;;;;;;;5050368;28;1563;-72
2022/08/02 10:04:56;;;;;;;;;;;;;;;;;;5052555;28;1148;-71
2022/08/02 10:07:21;;;;;;;;;;;;;;;;;;5049346;28;1239;-71
2022/08/02 10:09:47;;;;;;;;;;;;;;;;;;5050137;28;1961;-71
2022/08/02 10:12:12;;;;;;;;;;;;;;;;;;5023407;28;1593;-72
2022/08/02 10:14:38;;;;;;;;;;;;;;;;;;5059981;28;1175;-72
2022/08/02 10:17:06;;;;;;;;;;;;;;;;;;5054903;28;1480;-72
2022/08/02 10:19:33;;;;;;;;;;;;;;;;;;5060009;28;1233;-72
2022/08/02 10:22:05;;;;;;;;;;;;;;;;;;5059832;28;1498;-72
2022/08/02 10:24:31;;;;;;;;;;;;;;;;;;5057072;28;1912;-72
2022/08/02 10:26:58;;;;;;;;;;;;;;;;;;5059705;28;1236;-71
2022/08/02 10:29:28;;;;;;;;;;;;;;;;;;5042190;28;1898;-71
2022/08/02 10:31:59;;;;;;;;;;;;;;;;;;5054845;28;1904;-72
2022/08/02 10:34:30;;;;;;;;;;;;;;;;;;5057448;28;1261;-72
2022/08/02 10:36:56;;;;;;;;;;;;;;;;;;5054565;28;1301;-72
2022/08/02 10:39:21;;;;;;;;;;;;;;;;;;5058795;28;976;-71
2022/08/02 10:41:46;;;;;;;;;;;;;;;;;;5059426;28;818;-72
2022/08/02 10:44:28;;;;;;;;;;;;;;;;;;5060464;28;822;-72
2022/08/02 10:47:12;;;;;;;;;;;;;;;;;;5052325;28;1899;-72
2022/08/02 10:49:47;;;;;;;;;;;;;;;;;;5058239;28;1959;-72
2022/08/02 10:52:12;;;;;;;;;;;;;;;;;;5043351;28;1607;-72
2022/08/02 10:54:39;;;;;;;;;;;;;;;;;;5055311;28;1519;-70
2022/08/02 10:57:14;;;;;;;;;;;;;;;;;;5048103;28;1606;-72
2022/08/02 10:59:55;;;;;;;;;;;;;;;;;;5055931;28;1645;-71
2022/08/02 11:02:41;;;;;;;;;;;;;;;;;;5037636;28;1520;-72
2022/08/02 11:05:18;;;;;;;;;;;;;;;;;;5041751;28;1544;-73
2022/08/02 11:07:45;;;;;;;;;;;;;;;;;;5060054;28;1611;-71
2022/08/02 11:10:28;;;;;;;;;;;;;;;;;;5045271;28;1910;-73
2022/08/02 11:12:59;;;;;;;;;;;;;;;;;;5069448;28;1258;-71
2022/08/02 11:15:45;;;;;;;;;;;;;;;;;;5043004;28;1783;-70
2022/08/02 11:18:10;;;;;;;;;;;;;;;;;;5056344;28;1281;-69
2022/08/02 11:20:35;;;;;;;;;;;;;;;;;;5024829;28;1831;-69
2022/08/02 11:23:20;;;;;;;;;;;;;;;;;;5048549;28;1330;-70
2022/08/02 11:25:53;;;;;;;;;;;;;;;;;;5042837;28;1870;-71
2022/08/02 11:28:18;;;;;;;;;;;;;;;;;;5038993;28;1967;-70
2022/08/02 11:30:43;;;;;;;;;;;;;;;;;;5058531;28;1832;-72
2022/08/02 11:33:09;;;;;;;;;;;;;;;;;;5061896;28;1183;-72
2022/08/02 11:35:36;;;;;;;;;;;;;;;;;;5056425;28;1833;-73
2022/08/02 11:38:21;;;;;;;;;;;;;;;;;;5057601;28;1258;-72
2022/08/02 11:40:55;;;;;;;;;;;;;;;;;;5061965;28;1359;-74
2022/08/02 11:43:43;;;;;;;;;;;;;;;;;;5044231;28;1261;-72
2022/08/02 11:46:14;;;;;;;;;;;;;;;;;;5054865;28;1794;-72
2022/08/02 11:48:40;;;;;;;;;;;;;;;;;;5061831;28;1905;-70
2022/08/02 11:51:10;;;;;;;;;;;;;;;;;;5058661;28;1551;-73
2022/08/02 11:53:42;;;;;;;;;;;;;;;;;;5058261;28;1897;-72
2022/08/02 11:56:09;;;;;;;;;;;;;;;;;;5062479;28;1210;-73
2022/08/02 11:58:34;;;;;;;;;;;;;;;;;;5035741;28;1398;-73
2022/08/02 12:01:00;;;;;;;;;;;;;;;;;;5050874;28;1583;-73
2022/08/02 12:03:25;;;;;;;;;;;;;;;;;;5055233;28;1275;-73
2022/08/02 12:05:51;;;;;;;;;;;;;;;;;;5052560;28;1279;-73
2022/08/02 12:08:16;;;;;;;;;;;;;;;;;;5054680;28;1917;-73
2022/08/02 12:10:48;;;;;;;;;;;;;;;;;;5053165;28;1235;-73
2022/08/02 12:13:13;;;;;;;;;;;;;;;;;;5035673;28;1401;-73
2022/08/02 12:15:40;;;;;;;;;;;;;;;;;;5053558;28;1378;-73
2022/08/02 12:20:53;;;;;;;;;;;;;;;;;;5049178;28;1443;-73
2022/08/02 12:23:18;;;;;;;;;;;;;;;;;;5055090;28;1251;-71
2022/08/02 12:25:43;;;;;;;;;;;;;;;;;;5053460;28;1409;-71
2022/08/02 12:28:16;;;;;;;;;;;;;;;;;;5053172;28;1894;-72
2022/08/02 12:30:48;;;;;;;;;;;;;;;;;;5053425;28;1319;-73
2022/08/02 12:33:13;;;;;;;;;;;;;;;;;;5052996;28;1336;-73
2022/08/02 12:35:38;;;;;;;;;;;;;;;;;;5031343;28;1290;-73
2022/08/02 12:38:08;;;;;;;;;;;;;;;;;;5053544;28;1342;-72
2022/08/02 12:40:33;;;;;;;;;;;;;;;;;;5055590;28;1237;-72
2022/08/02 12:42:59;;;;;;;;;;;;;;;;;;5052959;28;1254;-72
2022/08/02 12:45:31;;;;;;;;;;;;;;;;;;5045894;28;1557;-70
2022/08/02 12:47:57;;;;;;;;;;;;;;;;;;5035659;28;1342;-71
2022/08/02 12:50:28;;;;;;;;;;;;;;;;;;5050930;28;1310;-71
2022/08/02 12:53:15;;;;;;;;;;;;;;;;;;5047445;28;1535;-72
2022/08/02 12:55:48;;;;;;;;;;;;;;;;;;5047691;28;1192;-71
2022/08/02 12:58:13;;;;;;;;;;;;;;;;;;5047419;28;1362;-71
2022/08/02 13:00:39;;;;;;;;;;;;;;;;;;5052680;28;1322;-72
2022/08/02 13:03:05;;;;;;;;;;;;;;;;;;5052365;28;1152;-72
2022/08/02 13:05:33;;;;;;;;;;;;;;;;;;5053434;28;1219;-72
2022/08/02 13:07:59;;;;;;;;;;;;;;;;;;5050992;28;1894;-72
2022/08/02 13:10:24;;;;;;;;;;;;;;;;;;5036499;28;1569;-71
2022/08/02 13:12:50;;;;;;;;;;;;;;;;;;5053566;28;1235;-70
2022/08/02 13:15:15;;;;;;;;;;;;;;;;;;5050953;28;1343;-70
2022/08/02 13:17:41;;;;;;;;;;;;;;;;;;5052184;28;1386;-72
2022/08/02 13:20:07;;;;;;;;;;;;;;;;;;5052624;28;1230;-73
2022/08/02 13:22:32;;;;;;;;;;;;;;;;;;5052018;28;1248;-72
2022/08/02 13:24:57;;;;;;;;;;;;;;;;;;5048040;28;1227;-71
2022/08/02 13:27:25;;;;;;;;;;;;;;;;;;5032095;28;1323;-72
2022/08/02 13:29:50;;;;;;;;;;;;;;;;;;5033885;28;1956;-73
2022/08/02 13:32:15;;;;;;;;;;;;;;;;;;5052062;28;1308;-72
2022/08/02 13:34:41;;;;;;;;;;;;;;;;;;5034986;28;1302;-72
2022/08/02 13:37:06;;;;;;;;;;;;;;;;;;5029576;28;1332;-71
2022/08/02 13:39:31;;;;;;;;;;;;;;;;;;5046416;28;1911;-72
2022/08/02 13:41:56;;;;;;;;;;;;;;;;;;5032826;28;1807;-73
2022/08/02 13:44:22;;;;;;;;;;;;;;;;;;5048608;28;1820;-70
2022/08/02 13:46:47;;;;;;;;;;;;;;;;;;5048454;28;1459;-72
2022/08/02 13:49:12;;;;;;;;;;;;;;;;;;5045100;28;1905;-72
2022/08/02 13:51:37;;;;;;;;;;;;;;;;;;5045124;28;1665;-74
2022/08/02 13:54:03;;;;;;;;;;;;;;;;;;5040319;28;1195;-73
2022/08/02 13:56:28;;;;;;;;;;;;;;;;;;5040594;28;1334;-72
2022/08/02 13:58:53;;;;;;;;;;;;;;;;;;5041016;28;1445;-73
2022/08/02 14:01:18;;;;;;;;;;;;;;;;;;5025600;28;1703;-73
2022/08/02 14:03:44;;;;;;;;;;;;;;;;;;5043079;28;1239;-73
2022/08/02 14:06:09;;;;;;;;;;;;;;;;;;5043356;28;1451;-74
2022/08/02 14:08:35;;;;;;;;;;;;;;;;;;5052525;28;1960;-73
2022/08/02 14:11:00;;;;;;;;;;;;;;;;;;5046328;28;1192;-72
2022/08/02 14:13:25;;;;;;;;;;;;;;;;;;5057341;28;1644;-72
2022/08/02 14:15:50;;;;;;;;;;;;;;;;;;5046230;28;1056;-74
2022/08/02 14:18:16;;;;;;;;;;;;;;;;;;5043750;28;1440;-73
2022/08/02 14:20:42;;;;;;;;;;;;;;;;;;5049633;28;1502;-71
2022/08/02 14:23:07;;;;;;;;;;;;;;;;;;5060845;28;861;-71
2022/08/02 14:25:32;;;;;;;;;;;;;;;;;;5045148;28;1561;-71
2022/08/02 14:27:57;;;;;;;;;;;;;;;;;;5058722;28;1337;-71
2022/08/02 14:30:22;;;;;;;;;;;;;;;;;;5058570;28;1898;-72
2022/08/02 14:32:48;;;;;;;;;;;;;;;;;;5058641;28;1617;-71
2022/08/02 14:35:13;;;;;;;;;;;;;;;;;;5062496;28;1310;-71
2022/08/02 14:37:38;;;;;;;;;;;;;;;;;;5063039;28;1431;-71
2022/08/02 14:40:04;;;;;;;;;;;;;;;;;;5047085;28;1089;-71
2022/08/02 14:42:29;;;;;;;;;;;;;;;;;;5063672;28;823;-71
2022/08/02 14:44:54;;;;;;;;;;;;;;;;;;5055705;28;1457;-71
2022/08/02 14:47:19;;;;;;;;;;;;;;;;;;5060997;28;1416;-70
2022/08/02 14:49:45;;;;;;;;;;;;;;;;;;5063645;28;1969;-72
2022/08/02 14:52:11;;;;;;;;;;;;;;;;;;5058307;28;1503;-72
2022/08/02 14:54:37;;;;;;;;;;;;;;;;;;5057835;28;1484;-72
2022/08/02 14:57:02;;;;;;;;;;;;;;;;;;5052233;28;1387;-70
2022/08/02 14:59:28;;;;;;;;;;;;;;;;;;5063292;28;886;-70
2022/08/02 15:01:53;;;;;;;;;;;;;;;;;;5063810;28;1000;-70
2022/08/02 15:04:19;;;;;;;;;;;;;;;;;;5053774;28;1541;-70
2022/08/02 15:06:44;;;;;;;;;;;;;;;;;;5035163;28;1562;-71
2022/08/02 15:09:09;;;;;;;;;;;;;;;;;;5068148;28;1890;-72
2022/08/02 15:11:37;;;;;;;;;;;;;;;;;;5063559;28;771;-72
2022/08/02 15:14:03;;;;;;;;;;;;;;;;;;5063412;28;846;-72
2022/08/02 15:16:31;;;;;;;;;;;;;;;;;;5060927;28;1176;-72
2022/08/02 15:18:57;;;;;;;;;;;;;;;;;;5063326;28;917;-71
2022/08/02 15:21:22;;;;;;;;;;;;;;;;;;5055747;28;1445;-70
2022/08/02 15:23:47;;;;;;;;;;;;;;;;;;5051895;28;1197;-71
2022/08/02 15:26:13;;;;;;;;;;;;;;;;;;5061379;28;799;-71
2022/08/02 15:28:38;;;;;;;;;;;;;;;;;;5061846;28;1898;-71
2022/08/02 15:31:03;;;;;;;;;;;;;;;;;;5062760;28;1075;-71
2022/08/02 15:33:28;;;;;;;;;;;;;;;;;;5062474;28;916;-73
2022/08/02 15:35:54;;;;;;;;;;;;;;;;;;5056948;28;1518;-73
2022/08/02 15:38:19;;;;;;;;;;;;;;;;;;5061803;28;1291;-73
2022/08/02 15:40:44;;;;;;;;;;;;;;;;;;5054403;28;1485;-70
2022/08/02 15:43:10;;;;;;;;;;;;;;;;;;5050758;28;1431;-71
2022/08/02 15:45:35;;;;;;;;;;;;;;;;;;5060603;28;985;-73
2022/08/02 15:48:01;;;;;;;;;;;;;;;;;;5061659;28;1267;-74
2022/08/02 15:50:29;;;;;;;;;;;;;;;;;;5057785;28;1963;-73
2022/08/02 15:52:54;;;;;;;;;;;;;;;;;;5044296;28;1453;-73
2022/08/02 15:55:19;;;;;;;;;;;;;;;;;;5061536;28;1041;-73
2022/08/02 15:57:45;;;;;;;;;;;;;;;;;;5055613;28;1565;-73
2022/08/02 16:00:10;;;;;;;;;;;;;;;;;;5060341;28;1391;-72
2022/08/02 16:02:35;;;;;;;;;;;;;;;;;;5067866;28;790;-74
2022/08/02 16:05:01;;;;;;;;;;;;;;;;;;5060804;28;1487;-72
2022/08/02 16:07:26;;;;;;;;;;;;;;;;;;5046902;28;1491;-73
2022/08/02 16:09:51;;;;;;;;;;;;;;;;;;5042750;28;1894;-74
2022/08/02 16:12:16;;;;;;;;;;;;;;;;;;5049882;28;1523;-73
2022/08/02 16:14:41;;;;;;;;;;;;;;;;;;5034995;28;1400;-72
2022/08/02 16:17:07;;;;;;;;;;;;;;;;;;5052694;28;1261;-74
2022/08/02 16:19:33;;;;;;;;;;;;;;;;;;5058005;28;1378;-75
2022/08/02 16:21:58;;;;;;;;;;;;;;;;;;5057318;28;1286;-73
2022/08/02 16:24:25;;;;;;;;;;;;;;;;;;5062144;28;850;-73
2022/08/02 16:26:50;;;;;;;;;;;;;;;;;;5053392;28;1451;-72
2022/08/02 16:29:16;;;;;;;;;;;;;;;;;;5047994;28;1898;-73
2022/08/02 16:31:41;;;;;;;;;;;;;;;;;;5061333;28;885;-73
2022/08/02 16:34:06;;;;;;;;;;;;;;;;;;5054452;28;1459;-73
2022/08/02 16:36:32;;;;;;;;;;;;;;;;;;5057526;28;1224;-73
2022/08/02 16:38:57;;;;;;;;;;;;;;;;;;5060484;28;1222;-73
2022/08/02 16:41:25;;;;;;;;;;;;;;;;;;5058673;28;1515;-71
2022/08/02 16:43:51;;;;;;;;;;;;;;;;;;5023968;28;1203;-71
2022/08/02 16:46:16;;;;;;;;;;;;;;;;;;5041069;28;1177;-71
2022/08/02 16:48:41;;;;;;;;;;;;;;;;;;5041224;28;1967;-71
2022/08/02 16:51:06;;;;;;;;;;;;;;;;;;5051898;28;1531;-70
2022/08/02 16:53:31;;;;;;;;;;;;;;;;;;5057437;28;1670;-71
2022/08/02 16:55:57;;;;;;;;;;;;;;;;;;5055482;28;1221;-72
2022/08/02 16:58:22;;;;;;;;;;;;;;;;;;5021115;28;1102;-72
2022/08/02 17:00:47;;;;;;;;;;;;;;;;;;5041753;28;850;-72
2022/08/02 17:03:12;;;;;;;;;;;;;;;;;;5041740;28;870;-72